sensor_id;sensor_type;location;lat;lon;timestamp;P1;durP1;ratioP1;P2;durP2;ratioP2
49458;SDS011;35354;51.296;16.924;2023-06-22T00:01:03;16.13;;;14.52;;
49458;SDS011;35354;51.296;16.924;2023-06-22T00:03:28;18.58;;;16.58;;
49458;SDS011;35354;51.296;16.924;2023-06-22T00:05:53;17.30;;;15.70;;
49458;SDS011;35354;51.296;16.924;2023-06-22T00:08:19;17.20;;;15.60;;
49458;SDS011;35354;51.296;16.924;2023-06-22T00:10:45;18.27;;;16.38;;
49458;SDS011;35354;51.296;16.924;2023-06-22T00:13:11;18.85;;;16.95;;
49458;SDS011;35354;51.296;16.924;2023-06-22T00:15:38;18.02;;;16.33;;
49458;SDS011;35354;51.296;16.924;2023-06-22T00:18:09;16.80;;;14.90;;
49458;SDS011;35354;51.296;16.924;2023-06-22T00:20:36;17.08;;;15.48;;
49458;SDS011;35354;51.296;16.924;2023-06-22T00:23:02;19.23;;;17.38;;
49458;SDS011;35354;51.296;16.924;2023-06-22T00:25:36;19.05;;;17.25;;
49458;SDS011;35354;51.296;16.924;2023-06-22T00:28:04;18.13;;;16.20;;
49458;SDS011;35354;51.296;16.924;2023-06-22T00:30:31;19.27;;;17.35;;
49458;SDS011;35354;51.296;16.924;2023-06-22T00:32:57;19.52;;;17.50;;
49458;SDS011;35354;51.296;16.924;2023-06-22T00:35:23;20.17;;;17.92;;
49458;SDS011;35354;51.296;16.924;2023-06-22T00:37:54;17.60;;;16.00;;
49458;SDS011;35354;51.296;16.924;2023-06-22T00:40:28;19.98;;;18.08;;
49458;SDS011;35354;51.296;16.924;2023-06-22T00:42:55;18.23;;;16.52;;
49458;SDS011;35354;51.296;16.924;2023-06-22T00:45:24;19.58;;;17.67;;
49458;SDS011;35354;51.296;16.924;2023-06-22T00:47:53;18.42;;;16.63;;
49458;SDS011;35354;51.296;16.924;2023-06-22T00:50:21;16.23;;;14.73;;
49458;SDS011;35354;51.296;16.924;2023-06-22T00:52:56;17.45;;;15.38;;
49458;SDS011;35354;51.296;16.924;2023-06-22T00:55:23;16.98;;;15.32;;
49458;SDS011;35354;51.296;16.924;2023-06-22T00:57:50;15.30;;;13.90;;
49458;SDS011;35354;51.296;16.924;2023-06-22T01:00:20;18.38;;;16.38;;
49458;SDS011;35354;51.296;16.924;2023-06-22T01:02:49;17.58;;;15.77;;
49458;SDS011;35354;51.296;16.924;2023-06-22T01:05:20;17.45;;;15.75;;
49458;SDS011;35354;51.296;16.924;2023-06-22T01:13:15;16.55;;;15.00;;
49458;SDS011;35354;51.296;16.924;2023-06-22T01:15:52;16.17;;;14.63;;
49458;SDS011;35354;51.296;16.924;2023-06-22T01:18:21;17.42;;;15.68;;
49458;SDS011;35354;51.296;16.924;2023-06-22T01:20:50;17.08;;;15.48;;
49458;SDS011;35354;51.296;16.924;2023-06-22T01:26:12;16.15;;;14.65;;
49458;SDS011;35354;51.296;16.924;2023-06-22T01:28:53;16.45;;;14.77;;
49458;SDS011;35354;51.296;16.924;2023-06-22T01:31:22;17.30;;;15.60;;
49458;SDS011;35354;51.296;16.924;2023-06-22T01:33:50;16.27;;;14.55;;
49458;SDS011;35354;51.296;16.924;2023-06-22T01:36:18;15.90;;;14.50;;
49458;SDS011;35354;51.296;16.924;2023-06-22T01:38:46;15.55;;;13.88;;
49458;SDS011;35354;51.296;16.924;2023-06-22T01:41:12;17.02;;;15.43;;
49458;SDS011;35354;51.296;16.924;2023-06-22T01:43:38;17.42;;;15.60;;
49458;SDS011;35354;51.296;16.924;2023-06-22T01:46:04;17.30;;;15.70;;
49458;SDS011;35354;51.296;16.924;2023-06-22T01:48:29;17.15;;;15.35;;
49458;SDS011;35354;51.296;16.924;2023-06-22T01:50:56;17.92;;;16.13;;
49458;SDS011;35354;51.296;16.924;2023-06-22T01:53:22;17.67;;;15.88;;
49458;SDS011;35354;51.296;16.924;2023-06-22T01:55:48;16.13;;;14.60;;
49458;SDS011;35354;51.296;16.924;2023-06-22T01:58:14;16.58;;;15.07;;
49458;SDS011;35354;51.296;16.924;2023-06-22T02:00:40;16.83;;;15.13;;
49458;SDS011;35354;51.296;16.924;2023-06-22T02:03:14;17.02;;;15.35;;
49458;SDS011;35354;51.296;16.924;2023-06-22T02:05:49;16.85;;;15.20;;
49458;SDS011;35354;51.296;16.924;2023-06-22T02:11:07;18.05;;;16.35;;
49458;SDS011;35354;51.296;16.924;2023-06-22T02:13:34;19.88;;;17.95;;
49458;SDS011;35354;51.296;16.924;2023-06-22T02:16:01;17.80;;;16.15;;
49458;SDS011;35354;51.296;16.924;2023-06-22T02:18:27;18.38;;;16.67;;
49458;SDS011;35354;51.296;16.924;2023-06-22T02:20:53;18.77;;;16.88;;
49458;SDS011;35354;51.296;16.924;2023-06-22T02:23:18;17.83;;;16.08;;
49458;SDS011;35354;51.296;16.924;2023-06-22T02:25:43;19.10;;;17.27;;
49458;SDS011;35354;51.296;16.924;2023-06-22T02:28:09;18.13;;;16.30;;
49458;SDS011;35354;51.296;16.924;2023-06-22T02:30:35;18.67;;;16.58;;
49458;SDS011;35354;51.296;16.924;2023-06-22T02:33:00;19.08;;;17.15;;
49458;SDS011;35354;51.296;16.924;2023-06-22T02:35:26;18.92;;;17.13;;
49458;SDS011;35354;51.296;16.924;2023-06-22T02:37:52;19.15;;;17.15;;
49458;SDS011;35354;51.296;16.924;2023-06-22T02:40:17;18.67;;;16.77;;
49458;SDS011;35354;51.296;16.924;2023-06-22T02:42:43;19.45;;;15.82;;
49458;SDS011;35354;51.296;16.924;2023-06-22T02:45:08;18.88;;;17.08;;
49458;SDS011;35354;51.296;16.924;2023-06-22T02:47:34;17.10;;;15.50;;
49458;SDS011;35354;51.296;16.924;2023-06-22T02:50:00;18.15;;;16.25;;
49458;SDS011;35354;51.296;16.924;2023-06-22T02:52:26;17.55;;;15.82;;
49458;SDS011;35354;51.296;16.924;2023-06-22T02:54:51;18.67;;;16.88;;
49458;SDS011;35354;51.296;16.924;2023-06-22T02:57:17;19.10;;;17.20;;
49458;SDS011;35354;51.296;16.924;2023-06-22T02:59:42;19.55;;;17.65;;
49458;SDS011;35354;51.296;16.924;2023-06-22T03:02:08;18.60;;;16.75;;
49458;SDS011;35354;51.296;16.924;2023-06-22T03:04:34;18.83;;;17.08;;
49458;SDS011;35354;51.296;16.924;2023-06-22T03:07:00;21.27;;;19.15;;
49458;SDS011;35354;51.296;16.924;2023-06-22T03:09:26;20.50;;;18.50;;
49458;SDS011;35354;51.296;16.924;2023-06-22T03:11:55;18.25;;;16.55;;
49458;SDS011;35354;51.296;16.924;2023-06-22T03:14:20;18.83;;;17.02;;
49458;SDS011;35354;51.296;16.924;2023-06-22T03:16:46;19.77;;;17.77;;
49458;SDS011;35354;51.296;16.924;2023-06-22T03:19:11;18.83;;;17.02;;
49458;SDS011;35354;51.296;16.924;2023-06-22T03:21:37;21.25;;;19.15;;
49458;SDS011;35354;51.296;16.924;2023-06-22T03:24:06;21.45;;;19.15;;
49458;SDS011;35354;51.296;16.924;2023-06-22T03:26:32;20.23;;;18.23;;
49458;SDS011;35354;51.296;16.924;2023-06-22T03:28:58;20.52;;;17.10;;
49458;SDS011;35354;51.296;16.924;2023-06-22T03:31:23;19.67;;;17.77;;
49458;SDS011;35354;51.296;16.924;2023-06-22T03:33:49;21.67;;;19.42;;
49458;SDS011;35354;51.296;16.924;2023-06-22T03:36:15;21.33;;;19.25;;
49458;SDS011;35354;51.296;16.924;2023-06-22T03:38:45;21.42;;;19.45;;
49458;SDS011;35354;51.296;16.924;2023-06-22T03:41:12;25.33;;;22.83;;
49458;SDS011;35354;51.296;16.924;2023-06-22T03:43:37;22.48;;;20.27;;
49458;SDS011;35354;51.296;16.924;2023-06-22T03:46:03;21.20;;;18.95;;
49458;SDS011;35354;51.296;16.924;2023-06-22T03:48:28;23.33;;;21.10;;
49458;SDS011;35354;51.296;16.924;2023-06-22T03:50:53;22.95;;;20.67;;
49458;SDS011;35354;51.296;16.924;2023-06-22T03:53:19;21.85;;;19.75;;
49458;SDS011;35354;51.296;16.924;2023-06-22T03:55:48;22.58;;;20.33;;
49458;SDS011;35354;51.296;16.924;2023-06-22T03:58:15;21.40;;;19.38;;
49458;SDS011;35354;51.296;16.924;2023-06-22T04:00:40;26.15;;;22.10;;
49458;SDS011;35354;51.296;16.924;2023-06-22T04:03:05;23.60;;;21.17;;
49458;SDS011;35354;51.296;16.924;2023-06-22T04:05:32;22.75;;;20.45;;
49458;SDS011;35354;51.296;16.924;2023-06-22T04:07:57;21.25;;;19.25;;
49458;SDS011;35354;51.296;16.924;2023-06-22T04:10:23;20.98;;;18.92;;
49458;SDS011;35354;51.296;16.924;2023-06-22T04:12:48;21.80;;;19.70;;
49458;SDS011;35354;51.296;16.924;2023-06-22T04:15:14;20.27;;;18.25;;
49458;SDS011;35354;51.296;16.924;2023-06-22T04:17:39;22.27;;;19.95;;
49458;SDS011;35354;51.296;16.924;2023-06-22T04:20:05;25.95;;;23.35;;
49458;SDS011;35354;51.296;16.924;2023-06-22T04:22:30;25.90;;;23.25;;
49458;SDS011;35354;51.296;16.924;2023-06-22T04:24:56;25.73;;;23.20;;
49458;SDS011;35354;51.296;16.924;2023-06-22T04:27:21;24.70;;;22.20;;
49458;SDS011;35354;51.296;16.924;2023-06-22T04:29:48;23.88;;;21.45;;
49458;SDS011;35354;51.296;16.924;2023-06-22T04:32:14;22.83;;;20.70;;
49458;SDS011;35354;51.296;16.924;2023-06-22T04:34:40;24.02;;;21.52;;
49458;SDS011;35354;51.296;16.924;2023-06-22T04:37:05;26.08;;;23.50;;
49458;SDS011;35354;51.296;16.924;2023-06-22T04:39:31;26.63;;;23.98;;
49458;SDS011;35354;51.296;16.924;2023-06-22T04:41:56;24.80;;;22.38;;
49458;SDS011;35354;51.296;16.924;2023-06-22T04:44:25;23.88;;;21.40;;
49458;SDS011;35354;51.296;16.924;2023-06-22T04:46:51;24.90;;;22.55;;
49458;SDS011;35354;51.296;16.924;2023-06-22T04:49:25;26.60;;;24.00;;
49458;SDS011;35354;51.296;16.924;2023-06-22T04:52:00;26.67;;;24.08;;
49458;SDS011;35354;51.296;16.924;2023-06-22T04:54:28;23.67;;;21.38;;
49458;SDS011;35354;51.296;16.924;2023-06-22T04:56:53;23.15;;;20.92;;
49458;SDS011;35354;51.296;16.924;2023-06-22T04:59:24;22.17;;;20.08;;
49458;SDS011;35354;51.296;16.924;2023-06-22T05:01:55;25.20;;;22.70;;
49458;SDS011;35354;51.296;16.924;2023-06-22T05:04:24;25.50;;;23.10;;
49458;SDS011;35354;51.296;16.924;2023-06-22T05:06:54;24.15;;;21.75;;
49458;SDS011;35354;51.296;16.924;2023-06-22T05:09:20;25.00;;;22.70;;
49458;SDS011;35354;51.296;16.924;2023-06-22T05:11:45;23.45;;;21.25;;
49458;SDS011;35354;51.296;16.924;2023-06-22T05:14:11;25.17;;;22.70;;
49458;SDS011;35354;51.296;16.924;2023-06-22T05:16:37;24.65;;;22.35;;
49458;SDS011;35354;51.296;16.924;2023-06-22T05:19:03;23.48;;;21.13;;
49458;SDS011;35354;51.296;16.924;2023-06-22T05:21:29;26.83;;;24.20;;
49458;SDS011;35354;51.296;16.924;2023-06-22T05:23:55;24.80;;;22.50;;
49458;SDS011;35354;51.296;16.924;2023-06-22T05:26:24;25.20;;;22.77;;
49458;SDS011;35354;51.296;16.924;2023-06-22T05:28:51;24.02;;;21.70;;
49458;SDS011;35354;51.296;16.924;2023-06-22T05:31:16;23.25;;;21.05;;
49458;SDS011;35354;51.296;16.924;2023-06-22T05:33:42;26.02;;;23.55;;
49458;SDS011;35354;51.296;16.924;2023-06-22T05:36:08;23.73;;;21.33;;
49458;SDS011;35354;51.296;16.924;2023-06-22T05:38:35;21.88;;;19.65;;
49458;SDS011;35354;51.296;16.924;2023-06-22T05:41:00;23.15;;;21.05;;
49458;SDS011;35354;51.296;16.924;2023-06-22T05:43:26;20.80;;;18.90;;
49458;SDS011;35354;51.296;16.924;2023-06-22T05:45:51;20.48;;;18.38;;
49458;SDS011;35354;51.296;16.924;2023-06-22T05:48:17;20.45;;;18.33;;
49458;SDS011;35354;51.296;16.924;2023-06-22T05:50:42;19.70;;;17.90;;
49458;SDS011;35354;51.296;16.924;2023-06-22T05:53:07;20.13;;;18.13;;
49458;SDS011;35354;51.296;16.924;2023-06-22T05:55:33;19.70;;;17.83;;
49458;SDS011;35354;51.296;16.924;2023-06-22T05:57:58;20.95;;;19.05;;
49458;SDS011;35354;51.296;16.924;2023-06-22T06:00:24;20.10;;;18.25;;
49458;SDS011;35354;51.296;16.924;2023-06-22T06:02:49;16.55;;;14.95;;
49458;SDS011;35354;51.296;16.924;2023-06-22T06:05:15;15.95;;;14.45;;
49458;SDS011;35354;51.296;16.924;2023-06-22T06:07:41;16.02;;;14.38;;
49458;SDS011;35354;51.296;16.924;2023-06-22T06:10:07;16.10;;;14.60;;
49458;SDS011;35354;51.296;16.924;2023-06-22T06:12:33;16.40;;;14.90;;
49458;SDS011;35354;51.296;16.924;2023-06-22T06:14:58;15.93;;;14.30;;
49458;SDS011;35354;51.296;16.924;2023-06-22T06:17:23;16.50;;;14.90;;
49458;SDS011;35354;51.296;16.924;2023-06-22T06:19:49;16.55;;;14.95;;
49458;SDS011;35354;51.296;16.924;2023-06-22T06:22:14;15.75;;;13.98;;
49458;SDS011;35354;51.296;16.924;2023-06-22T06:24:39;14.85;;;13.38;;
49458;SDS011;35354;51.296;16.924;2023-06-22T06:27:05;12.77;;;11.48;;
49458;SDS011;35354;51.296;16.924;2023-06-22T06:29:31;13.88;;;12.50;;
49458;SDS011;35354;51.296;16.924;2023-06-22T06:31:57;12.75;;;11.48;;
49458;SDS011;35354;51.296;16.924;2023-06-22T06:34:22;12.68;;;11.52;;
49458;SDS011;35354;51.296;16.924;2023-06-22T06:36:48;13.13;;;12.00;;
49458;SDS011;35354;51.296;16.924;2023-06-22T06:39:13;14.30;;;12.80;;
49458;SDS011;35354;51.296;16.924;2023-06-22T06:41:38;14.50;;;13.30;;
49458;SDS011;35354;51.296;16.924;2023-06-22T06:44:04;13.60;;;12.40;;
49458;SDS011;35354;51.296;16.924;2023-06-22T06:46:29;12.90;;;11.63;;
49458;SDS011;35354;51.296;16.924;2023-06-22T06:48:54;13.18;;;12.07;;
49458;SDS011;35354;51.296;16.924;2023-06-22T06:51:20;13.40;;;12.25;;
49458;SDS011;35354;51.296;16.924;2023-06-22T06:53:45;14.65;;;13.45;;
49458;SDS011;35354;51.296;16.924;2023-06-22T06:56:10;14.45;;;13.25;;
49458;SDS011;35354;51.296;16.924;2023-06-22T06:58:36;16.30;;;14.70;;
49458;SDS011;35354;51.296;16.924;2023-06-22T07:01:01;16.75;;;15.23;;
49458;SDS011;35354;51.296;16.924;2023-06-22T07:03:28;16.23;;;14.70;;
49458;SDS011;35354;51.296;16.924;2023-06-22T07:05:53;17.38;;;15.88;;
49458;SDS011;35354;51.296;16.924;2023-06-22T07:08:18;15.60;;;14.13;;
49458;SDS011;35354;51.296;16.924;2023-06-22T07:10:44;17.35;;;15.63;;
49458;SDS011;35354;51.296;16.924;2023-06-22T07:13:09;20.77;;;18.88;;
49458;SDS011;35354;51.296;16.924;2023-06-22T07:15:34;17.05;;;15.45;;
49458;SDS011;35354;51.296;16.924;2023-06-22T07:18:00;17.08;;;15.45;;
49458;SDS011;35354;51.296;16.924;2023-06-22T07:20:25;15.88;;;14.48;;
49458;SDS011;35354;51.296;16.924;2023-06-22T07:22:51;18.17;;;16.33;;
49458;SDS011;35354;51.296;16.924;2023-06-22T07:25:16;18.02;;;16.40;;
49458;SDS011;35354;51.296;16.924;2023-06-22T07:30:31;16.92;;;15.43;;
49458;SDS011;35354;51.296;16.924;2023-06-22T07:32:58;15.38;;;14.07;;
49458;SDS011;35354;51.296;16.924;2023-06-22T07:35:28;16.45;;;14.90;;
49458;SDS011;35354;51.296;16.924;2023-06-22T07:37:54;15.85;;;14.45;;
49458;SDS011;35354;51.296;16.924;2023-06-22T07:40:19;17.27;;;15.88;;
49458;SDS011;35354;51.296;16.924;2023-06-22T07:42:45;17.08;;;15.57;;
49458;SDS011;35354;51.296;16.924;2023-06-22T07:45:13;16.80;;;15.50;;
49458;SDS011;35354;51.296;16.924;2023-06-22T07:47:38;15.55;;;14.27;;
49458;SDS011;35354;51.296;16.924;2023-06-22T07:50:04;19.25;;;17.45;;
49458;SDS011;35354;51.296;16.924;2023-06-22T07:52:30;18.92;;;17.23;;
49458;SDS011;35354;51.296;16.924;2023-06-22T07:54:55;17.17;;;15.63;;
49458;SDS011;35354;51.296;16.924;2023-06-22T07:57:21;15.38;;;14.10;;
49458;SDS011;35354;51.296;16.924;2023-06-22T07:59:46;15.80;;;14.60;;
49458;SDS011;35354;51.296;16.924;2023-06-22T08:02:12;15.82;;;14.63;;
49458;SDS011;35354;51.296;16.924;2023-06-22T08:04:37;17.48;;;15.90;;
49458;SDS011;35354;51.296;16.924;2023-06-22T08:07:03;15.90;;;14.60;;
49458;SDS011;35354;51.296;16.924;2023-06-22T08:09:29;14.07;;;12.98;;
49458;SDS011;35354;51.296;16.924;2023-06-22T08:11:57;15.48;;;14.07;;
49458;SDS011;35354;51.296;16.924;2023-06-22T08:14:23;15.65;;;14.32;;
49458;SDS011;35354;51.296;16.924;2023-06-22T08:16:50;15.48;;;14.23;;
49458;SDS011;35354;51.296;16.924;2023-06-22T08:19:15;17.10;;;15.70;;
49458;SDS011;35354;51.296;16.924;2023-06-22T08:21:41;17.35;;;15.75;;
49458;SDS011;35354;51.296;16.924;2023-06-22T08:24:06;17.08;;;15.43;;
49458;SDS011;35354;51.296;16.924;2023-06-22T08:26:32;15.57;;;14.25;;
49458;SDS011;35354;51.296;16.924;2023-06-22T08:29:01;15.40;;;14.00;;
49458;SDS011;35354;51.296;16.924;2023-06-22T08:31:27;13.95;;;12.85;;
49458;SDS011;35354;51.296;16.924;2023-06-22T08:33:52;15.07;;;13.68;;
49458;SDS011;35354;51.296;16.924;2023-06-22T08:36:17;15.52;;;14.05;;
49458;SDS011;35354;51.296;16.924;2023-06-22T08:38:43;14.48;;;13.25;;
49458;SDS011;35354;51.296;16.924;2023-06-22T08:41:09;13.07;;;11.95;;
49458;SDS011;35354;51.296;16.924;2023-06-22T08:43:34;14.60;;;13.40;;
49458;SDS011;35354;51.296;16.924;2023-06-22T08:46:00;15.30;;;13.88;;
49458;SDS011;35354;51.296;16.924;2023-06-22T08:48:27;13.05;;;11.93;;
49458;SDS011;35354;51.296;16.924;2023-06-22T08:50:53;13.52;;;12.43;;
49458;SDS011;35354;51.296;16.924;2023-06-22T08:53:18;14.95;;;13.65;;
49458;SDS011;35354;51.296;16.924;2023-06-22T08:55:43;14.88;;;13.57;;
49458;SDS011;35354;51.296;16.924;2023-06-22T08:58:10;13.93;;;12.55;;
49458;SDS011;35354;51.296;16.924;2023-06-22T09:00:35;12.23;;;11.23;;
49458;SDS011;35354;51.296;16.924;2023-06-22T09:03:01;11.68;;;10.63;;
49458;SDS011;35354;51.296;16.924;2023-06-22T09:05:26;12.15;;;11.13;;
49458;SDS011;35354;51.296;16.924;2023-06-22T09:07:52;12.25;;;11.25;;
49458;SDS011;35354;51.296;16.924;2023-06-22T09:10:19;14.32;;;13.00;;
49458;SDS011;35354;51.296;16.924;2023-06-22T09:12:45;12.23;;;11.23;;
49458;SDS011;35354;51.296;16.924;2023-06-22T09:15:10;13.25;;;12.05;;
49458;SDS011;35354;51.296;16.924;2023-06-22T09:17:36;13.82;;;12.63;;
49458;SDS011;35354;51.296;16.924;2023-06-22T09:20:02;12.77;;;11.60;;
49458;SDS011;35354;51.296;16.924;2023-06-22T09:22:30;12.73;;;11.50;;
49458;SDS011;35354;51.296;16.924;2023-06-22T09:24:56;13.20;;;12.00;;
49458;SDS011;35354;51.296;16.924;2023-06-22T09:27:21;10.75;;;9.75;;
49458;SDS011;35354;51.296;16.924;2023-06-22T09:29:47;11.95;;;10.93;;
49458;SDS011;35354;51.296;16.924;2023-06-22T09:32:13;12.80;;;11.60;;
49458;SDS011;35354;51.296;16.924;2023-06-22T09:34:38;10.15;;;9.13;;
49458;SDS011;35354;51.296;16.924;2023-06-22T09:37:04;12.27;;;11.07;;
49458;SDS011;35354;51.296;16.924;2023-06-22T09:39:29;11.38;;;10.32;;
49458;SDS011;35354;51.296;16.924;2023-06-22T09:41:55;11.65;;;10.50;;
49458;SDS011;35354;51.296;16.924;2023-06-22T09:44:20;11.45;;;10.45;;
49458;SDS011;35354;51.296;16.924;2023-06-22T09:46:45;10.40;;;9.50;;
49458;SDS011;35354;51.296;16.924;2023-06-22T09:49:11;10.25;;;9.27;;
49458;SDS011;35354;51.296;16.924;2023-06-22T09:51:36;9.82;;;9.00;;
49458;SDS011;35354;51.296;16.924;2023-06-22T09:54:01;9.68;;;8.88;;
49458;SDS011;35354;51.296;16.924;2023-06-22T09:56:26;10.18;;;9.18;;
49458;SDS011;35354;51.296;16.924;2023-06-22T09:58:53;10.77;;;9.77;;
49458;SDS011;35354;51.296;16.924;2023-06-22T10:01:18;9.63;;;8.90;;
49458;SDS011;35354;51.296;16.924;2023-06-22T10:03:45;9.55;;;8.75;;
49458;SDS011;35354;51.296;16.924;2023-06-22T10:06:11;8.95;;;8.20;;
49458;SDS011;35354;51.296;16.924;2023-06-22T10:08:36;8.40;;;7.70;;
49458;SDS011;35354;51.296;16.924;2023-06-22T10:11:02;8.65;;;7.88;;
49458;SDS011;35354;51.296;16.924;2023-06-22T10:13:28;8.65;;;7.85;;
49458;SDS011;35354;51.296;16.924;2023-06-22T10:15:53;9.95;;;9.05;;
49458;SDS011;35354;51.296;16.924;2023-06-22T10:18:19;9.52;;;8.68;;
49458;SDS011;35354;51.296;16.924;2023-06-22T10:20:46;9.93;;;9.13;;
49458;SDS011;35354;51.296;16.924;2023-06-22T10:23:13;8.82;;;8.02;;
49458;SDS011;35354;51.296;16.924;2023-06-22T10:25:39;10.68;;;9.57;;
49458;SDS011;35354;51.296;16.924;2023-06-22T10:28:04;9.00;;;8.20;;
49458;SDS011;35354;51.296;16.924;2023-06-22T10:30:29;8.50;;;7.70;;
49458;SDS011;35354;51.296;16.924;2023-06-22T10:32:55;9.50;;;8.70;;
49458;SDS011;35354;51.296;16.924;2023-06-22T10:35:20;10.10;;;9.20;;
49458;SDS011;35354;51.296;16.924;2023-06-22T10:37:46;9.05;;;8.25;;
49458;SDS011;35354;51.296;16.924;2023-06-22T10:40:17;9.55;;;8.60;;
49458;SDS011;35354;51.296;16.924;2023-06-22T10:42:43;8.55;;;7.72;;
49458;SDS011;35354;51.296;16.924;2023-06-22T10:45:09;8.68;;;7.88;;
49458;SDS011;35354;51.296;16.924;2023-06-22T10:47:35;10.55;;;9.60;;
49458;SDS011;35354;51.296;16.924;2023-06-22T10:50:01;8.65;;;7.85;;
49458;SDS011;35354;51.296;16.924;2023-06-22T10:52:27;9.15;;;8.25;;
49458;SDS011;35354;51.296;16.924;2023-06-22T10:54:52;8.32;;;7.53;;
49458;SDS011;35354;51.296;16.924;2023-06-22T10:57:17;9.13;;;8.25;;
49458;SDS011;35354;51.296;16.924;2023-06-22T10:59:43;10.15;;;9.15;;
49458;SDS011;35354;51.296;16.924;2023-06-22T11:02:08;8.98;;;8.27;;
49458;SDS011;35354;51.296;16.924;2023-06-22T11:04:33;9.90;;;8.88;;
49458;SDS011;35354;51.296;16.924;2023-06-22T11:06:59;9.13;;;8.32;;
49458;SDS011;35354;51.296;16.924;2023-06-22T11:09:24;9.32;;;8.52;;
49458;SDS011;35354;51.296;16.924;2023-06-22T11:11:50;8.32;;;7.63;;
49458;SDS011;35354;51.296;16.924;2023-06-22T11:14:18;9.13;;;8.32;;
49458;SDS011;35354;51.296;16.924;2023-06-22T11:16:44;9.02;;;8.25;;
49458;SDS011;35354;51.296;16.924;2023-06-22T11:19:09;9.35;;;8.40;;
49458;SDS011;35354;51.296;16.924;2023-06-22T11:21:35;9.60;;;8.80;;
49458;SDS011;35354;51.296;16.924;2023-06-22T11:24:00;10.38;;;9.38;;
49458;SDS011;35354;51.296;16.924;2023-06-22T11:26:25;9.95;;;9.15;;
49458;SDS011;35354;51.296;16.924;2023-06-22T11:28:52;9.68;;;8.88;;
49458;SDS011;35354;51.296;16.924;2023-06-22T11:31:18;10.07;;;9.02;;
49458;SDS011;35354;51.296;16.924;2023-06-22T11:33:43;9.30;;;8.50;;
49458;SDS011;35354;51.296;16.924;2023-06-22T11:36:10;10.13;;;9.13;;
49458;SDS011;35354;51.296;16.924;2023-06-22T11:38:36;9.15;;;8.35;;
49458;SDS011;35354;51.296;16.924;2023-06-22T11:41:04;10.60;;;9.60;;
49458;SDS011;35354;51.296;16.924;2023-06-22T11:43:30;9.15;;;8.35;;
49458;SDS011;35354;51.296;16.924;2023-06-22T11:45:55;10.70;;;9.20;;
49458;SDS011;35354;51.296;16.924;2023-06-22T11:48:22;8.80;;;8.00;;
49458;SDS011;35354;51.296;16.924;2023-06-22T11:50:48;8.70;;;7.95;;
49458;SDS011;35354;51.296;16.924;2023-06-22T11:53:14;8.38;;;7.68;;
49458;SDS011;35354;51.296;16.924;2023-06-22T11:55:41;9.45;;;8.63;;
49458;SDS011;35354;51.296;16.924;2023-06-22T11:58:07;9.27;;;8.48;;
49458;SDS011;35354;51.296;16.924;2023-06-22T12:00:33;8.82;;;8.13;;
49458;SDS011;35354;51.296;16.924;2023-06-22T12:02:58;9.48;;;8.48;;
49458;SDS011;35354;51.296;16.924;2023-06-22T12:05:24;8.55;;;7.60;;
49458;SDS011;35354;51.296;16.924;2023-06-22T12:07:49;10.02;;;8.63;;
49458;SDS011;35354;51.296;16.924;2023-06-22T12:10:15;9.25;;;8.45;;
49458;SDS011;35354;51.296;16.924;2023-06-22T12:12:41;9.45;;;8.65;;
49458;SDS011;35354;51.296;16.924;2023-06-22T12:15:08;10.15;;;8.48;;
49458;SDS011;35354;51.296;16.924;2023-06-22T12:17:34;8.30;;;7.70;;
49458;SDS011;35354;51.296;16.924;2023-06-22T12:20:00;8.82;;;8.02;;
49458;SDS011;35354;51.296;16.924;2023-06-22T12:22:26;9.32;;;8.40;;
49458;SDS011;35354;51.296;16.924;2023-06-22T12:24:51;8.63;;;7.82;;
49458;SDS011;35354;51.296;16.924;2023-06-22T12:27:17;9.60;;;8.77;;
49458;SDS011;35354;51.296;16.924;2023-06-22T12:29:46;9.48;;;8.45;;
49458;SDS011;35354;51.296;16.924;2023-06-22T12:32:11;9.30;;;8.40;;
49458;SDS011;35354;51.296;16.924;2023-06-22T12:34:41;8.35;;;7.60;;
49458;SDS011;35354;51.296;16.924;2023-06-22T12:37:07;7.93;;;7.22;;
49458;SDS011;35354;51.296;16.924;2023-06-22T12:39:33;8.13;;;7.43;;
49458;SDS011;35354;51.296;16.924;2023-06-22T12:41:58;8.00;;;7.30;;
49458;SDS011;35354;51.296;16.924;2023-06-22T12:44:23;7.95;;;7.20;;
49458;SDS011;35354;51.296;16.924;2023-06-22T12:46:49;8.05;;;7.35;;
49458;SDS011;35354;51.296;16.924;2023-06-22T12:49:14;7.38;;;6.78;;
49458;SDS011;35354;51.296;16.924;2023-06-22T12:51:40;7.72;;;7.03;;
49458;SDS011;35354;51.296;16.924;2023-06-22T12:54:07;7.40;;;6.80;;
49458;SDS011;35354;51.296;16.924;2023-06-22T12:56:33;8.85;;;7.70;;
49458;SDS011;35354;51.296;16.924;2023-06-22T12:58:58;7.18;;;6.57;;
49458;SDS011;35354;51.296;16.924;2023-06-22T13:01:26;7.47;;;6.88;;
49458;SDS011;35354;51.296;16.924;2023-06-22T13:03:55;8.07;;;7.18;;
49458;SDS011;35354;51.296;16.924;2023-06-22T13:06:21;9.10;;;7.97;;
49458;SDS011;35354;51.296;16.924;2023-06-22T13:08:47;8.82;;;8.02;;
49458;SDS011;35354;51.296;16.924;2023-06-22T13:11:12;8.88;;;7.97;;
49458;SDS011;35354;51.296;16.924;2023-06-22T13:13:38;8.77;;;8.07;;
49458;SDS011;35354;51.296;16.924;2023-06-22T13:16:03;7.78;;;6.97;;
49458;SDS011;35354;51.296;16.924;2023-06-22T13:18:29;8.05;;;7.30;;
49458;SDS011;35354;51.296;16.924;2023-06-22T13:20:54;9.23;;;8.38;;
49458;SDS011;35354;51.296;16.924;2023-06-22T13:23:20;8.07;;;7.35;;
49458;SDS011;35354;51.296;16.924;2023-06-22T13:25:46;7.93;;;7.22;;
49458;SDS011;35354;51.296;16.924;2023-06-22T13:28:12;8.88;;;7.97;;
49458;SDS011;35354;51.296;16.924;2023-06-22T13:30:38;9.13;;;8.32;;
49458;SDS011;35354;51.296;16.924;2023-06-22T13:33:05;11.02;;;9.10;;
49458;SDS011;35354;51.296;16.924;2023-06-22T13:35:30;8.00;;;7.30;;
49458;SDS011;35354;51.296;16.924;2023-06-22T13:37:55;9.02;;;8.13;;
49458;SDS011;35354;51.296;16.924;2023-06-22T13:40:21;8.82;;;8.05;;
49458;SDS011;35354;51.296;16.924;2023-06-22T13:42:46;8.63;;;7.85;;
49458;SDS011;35354;51.296;16.924;2023-06-22T13:45:12;7.97;;;7.28;;
49458;SDS011;35354;51.296;16.924;2023-06-22T13:47:37;8.68;;;7.97;;
49458;SDS011;35354;51.296;16.924;2023-06-22T13:50:02;7.40;;;6.80;;
49458;SDS011;35354;51.296;16.924;2023-06-22T13:52:28;8.50;;;7.72;;
49458;SDS011;35354;51.296;16.924;2023-06-22T13:54:54;7.90;;;7.30;;
49458;SDS011;35354;51.296;16.924;2023-06-22T13:57:19;7.80;;;7.20;;
49458;SDS011;35354;51.296;16.924;2023-06-22T13:59:44;8.57;;;7.78;;
49458;SDS011;35354;51.296;16.924;2023-06-22T14:02:10;9.05;;;8.25;;
49458;SDS011;35354;51.296;16.924;2023-06-22T14:04:35;8.73;;;8.02;;
49458;SDS011;35354;51.296;16.924;2023-06-22T14:07:00;9.15;;;8.35;;
49458;SDS011;35354;51.296;16.924;2023-06-22T14:09:26;8.85;;;8.02;;
49458;SDS011;35354;51.296;16.924;2023-06-22T14:11:51;9.18;;;8.30;;
49458;SDS011;35354;51.296;16.924;2023-06-22T14:14:16;8.15;;;7.53;;
49458;SDS011;35354;51.296;16.924;2023-06-22T14:16:42;8.63;;;7.82;;
49458;SDS011;35354;51.296;16.924;2023-06-22T14:19:07;8.88;;;8.07;;
49458;SDS011;35354;51.296;16.924;2023-06-22T14:21:32;8.35;;;7.35;;
49458;SDS011;35354;51.296;16.924;2023-06-22T14:23:58;8.95;;;8.18;;